Weather History for KY19 - April, 2014

Change the Weather History Date:

Friday, April 18, 2014

  Actual Average (KBIS) Record (KBIS)
Temperature  
Mean Temperature 47 °F 45 °F  
Max Temperature 62 °F 59 °F 92 °F (1987)
Min Temperature 32 °F 32 °F 12 °F (1953)
Degree Days  
Heating Degree Days 18 20  
Month to date heating degree days 428  
Since 1 July heating degree days 7947  
Cooling Degree Days 0 0  
Month to date cooling degree days 0  
Year to date cooling degree days 0  
Moisture  
Dew Point 30 °F    
Average Humidity 58    
Maximum Humidity 76    
Minimum Humidity 41    
Precipitation  
Precipitation 0.00 in 0.04 in 0.74 in (1986)
Month to date precipitation 0.67  
Year to date precipitation 2.48  
Snow  
Snow 0.00 in 0.10 in 4.20 in (1970)
Month to date snowfall 3.2  
Since 1 July snowfall 49.8  
Snow Depth -    
Sea Level Pressure  
Sea Level Pressure 29.87 in    
Wind  
Wind Speed 19 mph (ESE)    
Max Wind Speed 33 mph    
Max Gust Speed 40 mph    
Visibility 10 miles    
Events      
T = Trace of Precipitation, MM = Missing Value Source: NWS Daily Summary

Daily Weather History Graph

Daily Weather History Graph

Search for Another Location

Airport or City:

Trip Planner

Search our weather history database for the weather conditions in past years. The results will help you decide how hot, cold, wet, or windy it might be!

Date:

Astronomy

Apr. 18, 2014 Rise Set
Actual Time 6:50 AM CDT 8:36 PM CDT
Civil Twilight 6:18 AM CDT 9:08 PM CDT
Nautical Twilight 5:39 AM CDT 9:47 PM CDT
Astronomical Twilight 4:56 AM CDT 10:30 PM CDT
Moon No Moon Rise 9:06 AM CDT (4/18)
Length of Visible Light 14h 49m
Length of Day
13h 45m
Waning Gibbous, 87% of the Moon is Illuminated
Apr 18
Waning Gibbous
Apr 22
Last Quarter
Apr 29
New
May 6
First Quarter
May 14
Full

Hourly Weather History & Observations

Time (CDT) Temp. Windchill Dew Point Humidity Pressure Visibility Wind Dir Wind Speed Gust Speed Precip Events Conditions
12:35 AM 33.8 °F 23.5 °F 23.0 °F 65% 30.12 in 10.0 mi SE 16.1 mph 19.6 mph N/A   Mostly Cloudy
12:55 AM 33.8 °F 24.3 °F 23.0 °F 65% 30.12 in 10.0 mi SE 13.8 mph 18.4 mph N/A   Overcast
1:15 AM 33.8 °F 25.3 °F 23.0 °F 65% 30.12 in 10.0 mi SE 11.5 mph 17.3 mph N/A   Overcast
1:35 AM 32.0 °F 23.0 °F 23.0 °F 69% 30.13 in 10.0 mi SE 11.5 mph - N/A   Overcast
1:55 AM 32.0 °F 22.1 °F 23.0 °F 69% 30.12 in 10.0 mi SE 13.8 mph - N/A   Overcast
2:15 AM 32.0 °F 22.5 °F 23.0 °F 69% 30.11 in 10.0 mi SE 12.7 mph - N/A   Overcast
2:35 AM 32.0 °F 21.2 °F 23.0 °F 69% 30.10 in 10.0 mi ESE 16.1 mph 20.7 mph N/A   Overcast
2:55 AM 32.0 °F 21.2 °F 23.0 °F 69% 30.09 in 10.0 mi ESE 16.1 mph - N/A   Overcast
3:15 AM 32.0 °F 21.2 °F 21.2 °F 64% 30.08 in 10.0 mi ESE 16.1 mph - N/A   Overcast
3:35 AM 32.0 °F 20.8 °F 21.2 °F 64% 30.08 in 10.0 mi ESE 17.3 mph 23.0 mph N/A   Overcast
3:55 AM 32.0 °F 21.2 °F 21.2 °F 64% 30.07 in 10.0 mi ESE 16.1 mph 24.2 mph N/A   Overcast
4:15 AM 32.0 °F 21.6 °F 21.2 °F 64% 30.06 in 10.0 mi ESE 15.0 mph - N/A   Mostly Cloudy
4:35 AM 32.0 °F 21.2 °F 21.2 °F 64% 30.06 in 10.0 mi ESE 16.1 mph 21.9 mph N/A   Mostly Cloudy
4:55 AM 32.0 °F 20.5 °F 21.2 °F 64% 30.05 in 10.0 mi ESE 18.4 mph 21.9 mph N/A   Overcast
5:15 AM 32.0 °F 21.2 °F 23.0 °F 69% 30.05 in 10.0 mi ESE 16.1 mph 23.0 mph N/A   Overcast
5:35 AM 32.0 °F 21.2 °F 23.0 °F 69% 30.05 in 10.0 mi ESE 16.1 mph - N/A   Overcast
5:55 AM 32.0 °F 21.2 °F 23.0 °F 69% 30.04 in 10.0 mi ESE 16.1 mph - N/A   Overcast
6:15 AM 32.0 °F 20.8 °F 23.0 °F 69% 30.03 in 10.0 mi East 17.3 mph 21.9 mph N/A   Overcast
6:35 AM 32.0 °F 20.8 °F 23.0 °F 69% 30.03 in 10.0 mi East 17.3 mph 20.7 mph N/A   Overcast
6:55 AM 32.0 °F 20.8 °F 23.0 °F 69% 30.03 in 10.0 mi ESE 17.3 mph - N/A   Overcast
7:15 AM 32.0 °F 20.1 °F 23.0 °F 69% 30.03 in 10.0 mi ESE 19.6 mph 25.3 mph N/A   Overcast
7:35 AM 32.0 °F 20.5 °F 23.0 °F 69% 30.02 in 10.0 mi ESE 18.4 mph 24.2 mph N/A   Mostly Cloudy
7:55 AM 32.0 °F 19.8 °F 23.0 °F 69% 30.02 in 10.0 mi ESE 20.7 mph 27.6 mph N/A   Clear
8:15 AM 33.8 °F 21.9 °F 23.0 °F 65% 30.02 in 10.0 mi ESE 21.9 mph - N/A   Clear
8:35 AM 35.6 °F 23.4 °F 23.0 °F 60% 30.01 in 10.0 mi ESE 25.3 mph 31.1 mph N/A   Clear
8:55 AM 35.6 °F 23.4 °F 23.0 °F 60% 30.00 in 10.0 mi ESE 25.3 mph 32.2 mph N/A   Clear
9:15 AM 37.4 °F 25.6 °F 23.0 °F 56% 29.98 in 10.0 mi ESE 26.5 mph 34.5 mph N/A   Clear
9:35 AM 39.2 °F 28.0 °F 23.0 °F 52% 29.97 in 10.0 mi ESE 26.5 mph 34.5 mph N/A   Clear
9:55 AM 39.2 °F 27.6 °F 23.0 °F 52% 29.96 in 10.0 mi SE 28.8 mph 35.7 mph N/A   Clear
10:15 AM 41.0 °F 30.7 °F 24.8 °F 53% 29.96 in 10.0 mi SE 25.3 mph 32.2 mph N/A   Clear
10:35 AM 41.0 °F 31.4 °F 24.8 °F 53% 29.96 in 10.0 mi SE 21.9 mph 28.8 mph N/A   Clear
10:55 AM 44.6 °F 35.7 °F 26.6 °F 49% 29.95 in 10.0 mi ESE 24.2 mph 28.8 mph N/A   Clear
11:15 AM 44.6 °F 35.5 °F 26.6 °F 49% 29.94 in 10.0 mi SE 25.3 mph 33.4 mph N/A   Clear
11:35 AM 46.4 °F 38.3 °F 26.6 °F 46% 29.95 in 10.0 mi SE 23.0 mph 29.9 mph N/A   Clear
11:55 AM 48.2 °F - 28.4 °F 46% 29.93 in 10.0 mi SE 25.3 mph 33.4 mph N/A   Clear
12:15 PM 48.2 °F - 28.4 °F 46% 29.90 in 10.0 mi ESE 28.8 mph 35.7 mph N/A   Clear
12:35 PM 50.0 °F - 30.2 °F 47% 29.90 in 10.0 mi ESE 28.8 mph 34.5 mph N/A   Clear
12:55 PM 50.0 °F - 32.0 °F 50% 29.89 in 10.0 mi ESE 23.0 mph 35.7 mph N/A   Clear
1:15 PM 53.6 °F - 32.0 °F 44% 29.89 in 10.0 mi ESE 27.6 mph 35.7 mph N/A   Clear
1:35 PM 53.6 °F - 32.0 °F 44% 29.89 in 10.0 mi SE 24.2 mph 36.8 mph N/A   Clear
1:55 PM 53.6 °F - 32.0 °F 44% 29.86 in 10.0 mi SE 25.3 mph 34.5 mph N/A   Clear
2:15 PM 55.4 °F - 32.0 °F 41% 29.85 in 10.0 mi SE 33.4 mph 38.0 mph N/A   Clear
2:35 PM 55.4 °F - 33.8 °F 44% 29.84 in 10.0 mi SE 29.9 mph 35.7 mph N/A   Clear
2:55 PM 55.4 °F - 33.8 °F 44% 29.82 in 10.0 mi SE 26.5 mph 35.7 mph N/A   Clear
3:15 PM 55.4 °F - 35.6 °F 47% 29.79 in 10.0 mi SE 28.8 mph 40.3 mph N/A   Clear
3:35 PM 57.2 °F - 35.6 °F 44% 29.78 in 10.0 mi SE 27.6 mph 35.7 mph N/A   Clear
3:55 PM 57.2 °F - 35.6 °F 44% 29.76 in 10.0 mi SE 32.2 mph 40.3 mph N/A   Clear
4:15 PM 59.0 °F - 35.6 °F 42% 29.76 in 10.0 mi SE 29.9 mph 36.8 mph N/A   Clear
4:35 PM 59.0 °F - 37.4 °F 45% 29.74 in 10.0 mi SE 25.3 mph 34.5 mph N/A   Clear
4:55 PM 60.8 °F - 37.4 °F 42% 29.72 in 10.0 mi SE 28.8 mph 38.0 mph N/A   Clear
5:15 PM 60.8 °F - 39.2 °F 45% 29.71 in 10.0 mi SE 26.5 mph 33.4 mph N/A   Clear
5:35 PM 62.6 °F - 39.2 °F 42% 29.69 in 10.0 mi SE 21.9 mph 34.5 mph N/A   Clear
5:55 PM 62.6 °F - 39.2 °F 42% 29.68 in 10.0 mi ESE 27.6 mph 34.5 mph N/A   Clear
6:15 PM 62.6 °F - 39.2 °F 42% 29.67 in 10.0 mi SE 23.0 mph 31.1 mph N/A   Clear
6:35 PM 57.2 °F - 37.4 °F 48% 29.67 in 10.0 mi East 21.9 mph 31.1 mph N/A   Clear
6:55 PM 55.4 °F - 37.4 °F 51% 29.67 in 10.0 mi ESE 20.7 mph 33.4 mph N/A   Clear
7:15 PM 55.4 °F - 37.4 °F 51% 29.65 in 10.0 mi ESE 26.5 mph 34.5 mph N/A   Partly Cloudy
7:35 PM 53.6 °F - 37.4 °F 54% 29.64 in 10.0 mi East 24.2 mph 29.9 mph N/A   Partly Cloudy
7:55 PM 51.8 °F - 37.4 °F 58% 29.62 in 10.0 mi East 24.2 mph 29.9 mph N/A   Mostly Cloudy
8:15 PM 51.8 °F - 37.4 °F 58% 29.61 in 10.0 mi East 21.9 mph 32.2 mph N/A   Scattered Clouds
8:35 PM 50.0 °F - 37.4 °F 62% 29.61 in 10.0 mi East 20.7 mph 25.3 mph N/A   Mostly Cloudy
8:55 PM 50.0 °F - 37.4 °F 62% 29.60 in 10.0 mi East 19.6 mph 23.0 mph N/A   Overcast
9:15 PM 48.2 °F - 37.4 °F 66% 29.60 in 10.0 mi East 15.0 mph 20.7 mph N/A   Mostly Cloudy
9:35 PM 48.2 °F - 37.4 °F 66% 29.60 in 10.0 mi ENE 11.5 mph - N/A   Overcast
9:55 PM 48.2 °F - 39.2 °F 71% 29.60 in 10.0 mi East 13.8 mph - N/A   Overcast
10:15 PM 48.2 °F - 39.2 °F 71% 29.59 in 10.0 mi ENE 11.5 mph - N/A   Overcast
10:35 PM 48.2 °F - 39.2 °F 71% 29.60 in 10.0 mi North 10.4 mph - N/A   Scattered Clouds
10:55 PM 46.4 °F 41.1 °F 39.2 °F 76% 29.61 in 10.0 mi NNW 11.5 mph - N/A   Mostly Cloudy
11:15 PM 46.4 °F 41.9 °F 39.2 °F 76% 29.61 in 10.0 mi North 9.2 mph - N/A   Overcast
11:35 PM 46.4 °F 41.5 °F 37.4 °F 71% 29.62 in 10.0 mi NNW 10.4 mph - N/A   Scattered Clouds
11:55 PM 44.6 °F 39.7 °F 37.4 °F 76% 29.62 in 10.0 mi NNW 9.2 mph - N/A   Scattered Clouds